Humidity-temperature Sensor

Selected Measurement Type: Air Temperature

 
Air Temperature [°C]     6 entries per hour
Showing data from 11/1/2014 (00:00:00 Z) to 10/31/2014 (00:01:00 Z)
Previous Next [ Day | 3-Days | 7-Days ]
First Last
Prev [ Day | 3-Days | 7-Days ] Next
First Last

Start Time:     :
End Time:     :     
Time (in GMT) :00 :50 :40 :30 :20 :10
Previous Next [ Day | 3-Days | 7-Days ]
First Last
Prev [ Day | 3-Days | 7-Days ] Next
First Last


123 => good data
MM => data is determined as missing
-- => data not received/configured
Back to Top Back to Top
11/1/2014 00:00 to 23:10 26.00 26.02 26.01 26.09 25.87 26.02
10/31/2014 23:00 to 22:10 26.04 25.92 25.90 25.72 25.82 25.72
10/31/2014 22:00 to 21:10 25.55 25.91 25.68 25.69 25.74 25.60
10/31/2014 21:00 to 20:10 25.60 25.62 25.54 25.48 25.63 25.57
10/31/2014 20:00 to 19:10 25.57 25.56 25.64 25.50 25.68 25.53
10/31/2014 19:00 to 18:10 25.56 25.47 25.48 25.40 25.56 25.58
10/31/2014 18:00 to 17:10 25.74 25.67 25.64 25.56 25.56 25.52
10/31/2014 17:00 to 16:10 25.43 25.60 25.68 25.69 25.79 25.61
10/31/2014 16:00 to 15:10 25.72 25.62 25.69 25.52 25.45 25.49
10/31/2014 15:00 to 14:10 25.24 25.30 25.16 25.13 25.04 24.85
10/31/2014 14:00 to 13:10 24.73 24.84 24.84 24.79 24.86 24.87
10/31/2014 13:00 to 12:10 24.83 24.88 24.83 24.85 24.75 24.86
10/31/2014 12:00 to 11:10 24.93 24.89 24.84 24.80 24.82 24.83
10/31/2014 11:00 to 10:10 24.83 24.79 24.93 25.05 24.78 24.91
10/31/2014 10:00 to 9:10 24.86 24.89 24.89 24.94 24.92 24.93
10/31/2014 09:00 to 8:10 25.06 25.07 24.99 24.97 25.08 25.03
10/31/2014 08:00 to 7:10 25.06 25.11 25.10 25.16 25.12 25.03
10/31/2014 07:00 to 6:10 25.25 25.06 25.13 25.23 25.22 25.20
10/31/2014 06:00 to 5:10 25.26 25.19 25.27 25.24 25.19 25.20
10/31/2014 05:00 to 4:10 25.12 25.28 25.37 25.19 25.33 25.23
10/31/2014 04:00 to 3:10 25.21 25.37 25.24 25.27 25.21 25.11
10/31/2014 03:00 to 2:10 25.10 25.27 25.17 25.08 25.09 25.17
10/31/2014 02:00 to 1:10 25.21 25.23 25.39 25.50 25.44 25.62
10/31/2014 01:00 to 0:10 25.46 25.49 25.42 25.24 25.03 25.64